sensor_id;sensor_type;location;lat;lon;timestamp;P1;durP1;ratioP1;P2;durP2;ratioP2
80732;SDS011;70130;44.534;18.678;2024-02-21T00:02:03;187.50;;;86.50;;
80732;SDS011;70130;44.534;18.678;2024-02-21T00:04:29;174.27;;;79.25;;
80732;SDS011;70130;44.534;18.678;2024-02-21T00:06:55;166.40;;;75.22;;
80732;SDS011;70130;44.534;18.678;2024-02-21T00:09:20;164.75;;;73.78;;
80732;SDS011;70130;44.534;18.678;2024-02-21T00:11:46;143.82;;;68.40;;
80732;SDS011;70130;44.534;18.678;2024-02-21T00:14:11;146.07;;;70.15;;
80732;SDS011;70130;44.534;18.678;2024-02-21T00:16:37;145.95;;;70.30;;
80732;SDS011;70130;44.534;18.678;2024-02-21T00:19:02;147.55;;;70.30;;
80732;SDS011;70130;44.534;18.678;2024-02-21T00:21:28;142.68;;;69.63;;
80732;SDS011;70130;44.534;18.678;2024-02-21T00:23:54;149.88;;;70.32;;
80732;SDS011;70130;44.534;18.678;2024-02-21T00:26:19;138.00;;;68.80;;
80732;SDS011;70130;44.534;18.678;2024-02-21T00:28:45;131.35;;;63.50;;
80732;SDS011;70130;44.534;18.678;2024-02-21T00:31:11;131.70;;;65.78;;
80732;SDS011;70130;44.534;18.678;2024-02-21T00:33:36;120.45;;;59.38;;
80732;SDS011;70130;44.534;18.678;2024-02-21T00:36:02;117.22;;;57.15;;
80732;SDS011;70130;44.534;18.678;2024-02-21T00:38:28;112.93;;;53.72;;
80732;SDS011;70130;44.534;18.678;2024-02-21T00:40:54;109.70;;;52.47;;
80732;SDS011;70130;44.534;18.678;2024-02-21T00:43:19;109.25;;;50.17;;
80732;SDS011;70130;44.534;18.678;2024-02-21T00:45:49;115.22;;;53.80;;
80732;SDS011;70130;44.534;18.678;2024-02-21T00:48:14;128.00;;;57.25;;
80732;SDS011;70130;44.534;18.678;2024-02-21T00:50:40;100.55;;;50.17;;
80732;SDS011;70130;44.534;18.678;2024-02-21T00:53:06;106.18;;;47.65;;
80732;SDS011;70130;44.534;18.678;2024-02-21T00:55:31;105.00;;;47.80;;
80732;SDS011;70130;44.534;18.678;2024-02-21T00:57:57;88.63;;;43.90;;
80732;SDS011;70130;44.534;18.678;2024-02-21T01:00:22;89.95;;;45.03;;
80732;SDS011;70130;44.534;18.678;2024-02-21T01:02:48;91.55;;;44.05;;
80732;SDS011;70130;44.534;18.678;2024-02-21T01:05:13;92.25;;;43.30;;
80732;SDS011;70130;44.534;18.678;2024-02-21T01:07:39;84.90;;;43.53;;
80732;SDS011;70130;44.534;18.678;2024-02-21T01:10:05;92.18;;;42.40;;
80732;SDS011;70130;44.534;18.678;2024-02-21T01:12:31;84.28;;;40.83;;
80732;SDS011;70130;44.534;18.678;2024-02-21T01:14:57;87.70;;;41.40;;
80732;SDS011;70130;44.534;18.678;2024-02-21T01:17:22;86.97;;;41.22;;
80732;SDS011;70130;44.534;18.678;2024-02-21T01:19:48;86.32;;;40.15;;
80732;SDS011;70130;44.534;18.678;2024-02-21T01:22:13;86.70;;;39.10;;
80732;SDS011;70130;44.534;18.678;2024-02-21T01:24:41;80.78;;;39.53;;
80732;SDS011;70130;44.534;18.678;2024-02-21T01:27:06;79.95;;;38.75;;
80732;SDS011;70130;44.534;18.678;2024-02-21T01:29:32;85.15;;;41.03;;
80732;SDS011;70130;44.534;18.678;2024-02-21T01:31:58;81.53;;;37.88;;
80732;SDS011;70130;44.534;18.678;2024-02-21T01:34:23;79.85;;;39.17;;
80732;SDS011;70130;44.534;18.678;2024-02-21T01:36:49;82.53;;;40.30;;
80732;SDS011;70130;44.534;18.678;2024-02-21T01:39:14;88.03;;;42.40;;
80732;SDS011;70130;44.534;18.678;2024-02-21T01:41:40;88.10;;;42.30;;
80732;SDS011;70130;44.534;18.678;2024-02-21T01:44:05;103.65;;;47.47;;
80732;SDS011;70130;44.534;18.678;2024-02-21T01:46:31;97.00;;;44.92;;
80732;SDS011;70130;44.534;18.678;2024-02-21T01:48:57;92.63;;;46.40;;
80732;SDS011;70130;44.534;18.678;2024-02-21T01:51:23;106.18;;;50.42;;
80732;SDS011;70130;44.534;18.678;2024-02-21T01:53:49;119.00;;;56.33;;
80732;SDS011;70130;44.534;18.678;2024-02-21T01:56:16;116.55;;;57.70;;
80732;SDS011;70130;44.534;18.678;2024-02-21T01:58:43;117.78;;;60.63;;
80732;SDS011;70130;44.534;18.678;2024-02-21T02:01:12;121.05;;;58.40;;
80732;SDS011;70130;44.534;18.678;2024-02-21T02:03:37;117.07;;;57.85;;
80732;SDS011;70130;44.534;18.678;2024-02-21T02:06:05;115.18;;;55.92;;
80732;SDS011;70130;44.534;18.678;2024-02-21T02:08:31;114.07;;;56.42;;
80732;SDS011;70130;44.534;18.678;2024-02-21T02:10:57;115.32;;;58.30;;
80732;SDS011;70130;44.534;18.678;2024-02-21T02:13:24;116.25;;;55.35;;
80732;SDS011;70130;44.534;18.678;2024-02-21T02:15:50;109.68;;;54.65;;
80732;SDS011;70130;44.534;18.678;2024-02-21T02:18:16;111.88;;;55.25;;
80732;SDS011;70130;44.534;18.678;2024-02-21T02:20:43;113.22;;;56.88;;
80732;SDS011;70130;44.534;18.678;2024-02-21T02:23:11;112.00;;;56.38;;
80732;SDS011;70130;44.534;18.678;2024-02-21T02:25:39;102.80;;;52.97;;
80732;SDS011;70130;44.534;18.678;2024-02-21T02:28:08;110.28;;;54.35;;
80732;SDS011;70130;44.534;18.678;2024-02-21T02:30:34;105.05;;;50.58;;
80732;SDS011;70130;44.534;18.678;2024-02-21T02:33:02;104.88;;;47.65;;
80732;SDS011;70130;44.534;18.678;2024-02-21T02:35:28;99.15;;;47.67;;
80732;SDS011;70130;44.534;18.678;2024-02-21T02:37:54;95.78;;;49.97;;
80732;SDS011;70130;44.534;18.678;2024-02-21T02:40:19;99.90;;;50.03;;
80732;SDS011;70130;44.534;18.678;2024-02-21T02:42:45;116.70;;;50.85;;
80732;SDS011;70130;44.534;18.678;2024-02-21T02:45:10;107.63;;;53.28;;
80732;SDS011;70130;44.534;18.678;2024-02-21T02:47:36;99.68;;;50.22;;
80732;SDS011;70130;44.534;18.678;2024-02-21T02:50:02;103.88;;;51.42;;
80732;SDS011;70130;44.534;18.678;2024-02-21T02:52:28;109.03;;;54.35;;
80732;SDS011;70130;44.534;18.678;2024-02-21T02:54:53;112.95;;;56.47;;
80732;SDS011;70130;44.534;18.678;2024-02-21T02:57:21;126.28;;;59.58;;
80732;SDS011;70130;44.534;18.678;2024-02-21T02:59:47;113.80;;;57.45;;
80732;SDS011;70130;44.534;18.678;2024-02-21T03:02:13;123.40;;;59.83;;
80732;SDS011;70130;44.534;18.678;2024-02-21T03:04:39;133.18;;;63.80;;
80732;SDS011;70130;44.534;18.678;2024-02-21T03:07:05;128.45;;;64.55;;
80732;SDS011;70130;44.534;18.678;2024-02-21T03:09:31;125.13;;;62.42;;
80732;SDS011;70130;44.534;18.678;2024-02-21T03:11:57;127.63;;;65.28;;
80732;SDS011;70130;44.534;18.678;2024-02-21T03:14:30;122.13;;;63.40;;
80732;SDS011;70130;44.534;18.678;2024-02-21T03:16:57;117.32;;;62.08;;
80732;SDS011;70130;44.534;18.678;2024-02-21T03:19:24;123.35;;;63.78;;
80732;SDS011;70130;44.534;18.678;2024-02-21T03:21:50;123.35;;;63.22;;
80732;SDS011;70130;44.534;18.678;2024-02-21T03:24:16;125.00;;;63.75;;
80732;SDS011;70130;44.534;18.678;2024-02-21T03:26:42;122.10;;;61.83;;
80732;SDS011;70130;44.534;18.678;2024-02-21T03:29:08;115.75;;;60.88;;
80732;SDS011;70130;44.534;18.678;2024-02-21T03:31:37;120.32;;;62.10;;
80732;SDS011;70130;44.534;18.678;2024-02-21T03:34:03;120.95;;;59.85;;
80732;SDS011;70130;44.534;18.678;2024-02-21T03:36:28;110.57;;;53.38;;
80732;SDS011;70130;44.534;18.678;2024-02-21T03:38:54;113.35;;;55.17;;
80732;SDS011;70130;44.534;18.678;2024-02-21T03:41:20;122.55;;;59.65;;
80732;SDS011;70130;44.534;18.678;2024-02-21T03:43:46;111.45;;;57.17;;
80732;SDS011;70130;44.534;18.678;2024-02-21T03:46:12;106.30;;;57.13;;
80732;SDS011;70130;44.534;18.678;2024-02-21T03:48:38;117.75;;;59.78;;
80732;SDS011;70130;44.534;18.678;2024-02-21T03:51:03;128.27;;;61.58;;
80732;SDS011;70130;44.534;18.678;2024-02-21T03:53:30;122.00;;;60.53;;
80732;SDS011;70130;44.534;18.678;2024-02-21T03:55:55;121.60;;;60.90;;
80732;SDS011;70130;44.534;18.678;2024-02-21T03:58:21;113.55;;;58.13;;
80732;SDS011;70130;44.534;18.678;2024-02-21T04:00:47;115.70;;;56.92;;
80732;SDS011;70130;44.534;18.678;2024-02-21T04:03:13;110.82;;;56.13;;
80732;SDS011;70130;44.534;18.678;2024-02-21T04:05:39;108.53;;;54.95;;
80732;SDS011;70130;44.534;18.678;2024-02-21T04:08:05;123.47;;;59.55;;
80732;SDS011;70130;44.534;18.678;2024-02-21T04:10:31;114.43;;;59.22;;
80732;SDS011;70130;44.534;18.678;2024-02-21T04:12:56;110.35;;;56.92;;
80732;SDS011;70130;44.534;18.678;2024-02-21T04:15:22;118.40;;;60.97;;
80732;SDS011;70130;44.534;18.678;2024-02-21T04:17:47;119.82;;;59.72;;
80732;SDS011;70130;44.534;18.678;2024-02-21T04:20:14;114.60;;;58.55;;
80732;SDS011;70130;44.534;18.678;2024-02-21T04:22:44;114.70;;;58.30;;
80732;SDS011;70130;44.534;18.678;2024-02-21T04:25:10;120.70;;;58.25;;
80732;SDS011;70130;44.534;18.678;2024-02-21T04:27:36;114.65;;;56.92;;
80732;SDS011;70130;44.534;18.678;2024-02-21T04:30:06;118.43;;;61.92;;
80732;SDS011;70130;44.534;18.678;2024-02-21T04:32:32;116.90;;;58.63;;
80732;SDS011;70130;44.534;18.678;2024-02-21T04:34:58;124.05;;;60.15;;
80732;SDS011;70130;44.534;18.678;2024-02-21T04:37:24;115.75;;;59.30;;
80732;SDS011;70130;44.534;18.678;2024-02-21T04:39:49;110.90;;;56.10;;
80732;SDS011;70130;44.534;18.678;2024-02-21T04:42:16;118.00;;;58.95;;
80732;SDS011;70130;44.534;18.678;2024-02-21T04:44:42;119.40;;;59.17;;
80732;SDS011;70130;44.534;18.678;2024-02-21T04:47:08;118.70;;;60.85;;
80732;SDS011;70130;44.534;18.678;2024-02-21T04:49:34;112.10;;;59.38;;
80732;SDS011;70130;44.534;18.678;2024-02-21T04:51:59;115.90;;;59.70;;
80732;SDS011;70130;44.534;18.678;2024-02-21T04:54:25;115.55;;;58.75;;
80732;SDS011;70130;44.534;18.678;2024-02-21T04:56:51;128.15;;;62.63;;
80732;SDS011;70130;44.534;18.678;2024-02-21T04:59:17;127.05;;;63.75;;
80732;SDS011;70130;44.534;18.678;2024-02-21T05:01:42;127.30;;;64.53;;
80732;SDS011;70130;44.534;18.678;2024-02-21T05:04:08;183.20;;;82.45;;
80732;SDS011;70130;44.534;18.678;2024-02-21T05:06:37;171.20;;;80.90;;
80732;SDS011;70130;44.534;18.678;2024-02-21T05:09:04;149.88;;;72.10;;
80732;SDS011;70130;44.534;18.678;2024-02-21T05:11:30;137.25;;;63.50;;
80732;SDS011;70130;44.534;18.678;2024-02-21T05:13:56;128.50;;;63.75;;
80732;SDS011;70130;44.534;18.678;2024-02-21T05:16:22;160.02;;;84.80;;
80732;SDS011;70130;44.534;18.678;2024-02-21T05:18:48;176.63;;;98.63;;
80732;SDS011;70130;44.534;18.678;2024-02-21T05:21:13;149.05;;;81.03;;
80732;SDS011;70130;44.534;18.678;2024-02-21T05:23:39;132.40;;;64.82;;
80732;SDS011;70130;44.534;18.678;2024-02-21T05:26:05;125.85;;;61.78;;
80732;SDS011;70130;44.534;18.678;2024-02-21T05:28:31;147.70;;;77.80;;
80732;SDS011;70130;44.534;18.678;2024-02-21T05:30:56;142.02;;;77.35;;
80732;SDS011;70130;44.534;18.678;2024-02-21T05:33:22;157.02;;;82.28;;
80732;SDS011;70130;44.534;18.678;2024-02-21T05:35:48;145.85;;;70.60;;
80732;SDS011;70130;44.534;18.678;2024-02-21T05:38:14;149.68;;;73.25;;
80732;SDS011;70130;44.534;18.678;2024-02-21T05:40:40;137.63;;;70.63;;
80732;SDS011;70130;44.534;18.678;2024-02-21T05:43:09;134.48;;;68.28;;
80732;SDS011;70130;44.534;18.678;2024-02-21T05:45:35;132.43;;;69.50;;
80732;SDS011;70130;44.534;18.678;2024-02-21T05:48:01;149.13;;;75.38;;
80732;SDS011;70130;44.534;18.678;2024-02-21T05:50:27;155.82;;;75.82;;
80732;SDS011;70130;44.534;18.678;2024-02-21T05:52:56;150.73;;;77.60;;
80732;SDS011;70130;44.534;18.678;2024-02-21T05:55:22;157.85;;;81.53;;
80732;SDS011;70130;44.534;18.678;2024-02-21T05:57:48;150.50;;;76.32;;
80732;SDS011;70130;44.534;18.678;2024-02-21T06:00:13;151.73;;;76.20;;
80732;SDS011;70130;44.534;18.678;2024-02-21T06:02:40;145.02;;;73.55;;
80732;SDS011;70130;44.534;18.678;2024-02-21T06:05:06;137.75;;;70.78;;
80732;SDS011;70130;44.534;18.678;2024-02-21T06:07:35;157.02;;;79.10;;
80732;SDS011;70130;44.534;18.678;2024-02-21T06:10:01;146.63;;;74.10;;
80732;SDS011;70130;44.534;18.678;2024-02-21T06:12:27;139.98;;;71.18;;
80732;SDS011;70130;44.534;18.678;2024-02-21T06:14:53;140.07;;;70.45;;
80732;SDS011;70130;44.534;18.678;2024-02-21T06:17:19;140.05;;;71.00;;
80732;SDS011;70130;44.534;18.678;2024-02-21T06:19:44;130.98;;;68.25;;
80732;SDS011;70130;44.534;18.678;2024-02-21T06:22:10;116.50;;;56.63;;
80732;SDS011;70130;44.534;18.678;2024-02-21T06:24:36;130.02;;;64.03;;
80732;SDS011;70130;44.534;18.678;2024-02-21T06:27:06;144.57;;;69.55;;
80732;SDS011;70130;44.534;18.678;2024-02-21T06:29:33;155.18;;;78.10;;
80732;SDS011;70130;44.534;18.678;2024-02-21T06:31:59;167.55;;;84.28;;
80732;SDS011;70130;44.534;18.678;2024-02-21T06:34:25;159.93;;;77.85;;
80732;SDS011;70130;44.534;18.678;2024-02-21T06:36:51;154.07;;;76.38;;
80732;SDS011;70130;44.534;18.678;2024-02-21T06:39:17;154.57;;;74.38;;
80732;SDS011;70130;44.534;18.678;2024-02-21T06:41:43;142.70;;;67.55;;
80732;SDS011;70130;44.534;18.678;2024-02-21T06:44:09;125.75;;;62.75;;
80732;SDS011;70130;44.534;18.678;2024-02-21T06:46:34;98.13;;;48.70;;
80732;SDS011;70130;44.534;18.678;2024-02-21T06:49:00;95.47;;;40.40;;
80732;SDS011;70130;44.534;18.678;2024-02-21T06:51:27;74.57;;;36.17;;
80732;SDS011;70130;44.534;18.678;2024-02-21T06:53:53;95.28;;;46.65;;
80732;SDS011;70130;44.534;18.678;2024-02-21T06:56:19;79.22;;;37.45;;
80732;SDS011;70130;44.534;18.678;2024-02-21T06:58:45;75.32;;;36.97;;
80732;SDS011;70130;44.534;18.678;2024-02-21T07:01:11;76.65;;;38.92;;
80732;SDS011;70130;44.534;18.678;2024-02-21T07:03:37;103.68;;;44.88;;
80732;SDS011;70130;44.534;18.678;2024-02-21T07:06:03;82.97;;;41.67;;
80732;SDS011;70130;44.534;18.678;2024-02-21T07:08:29;77.18;;;38.00;;
80732;SDS011;70130;44.534;18.678;2024-02-21T07:10:55;104.10;;;47.85;;
80732;SDS011;70130;44.534;18.678;2024-02-21T07:13:20;104.22;;;47.78;;
80732;SDS011;70130;44.534;18.678;2024-02-21T07:15:48;110.57;;;55.22;;
80732;SDS011;70130;44.534;18.678;2024-02-21T07:18:13;108.57;;;54.00;;
80732;SDS011;70130;44.534;18.678;2024-02-21T07:20:39;104.90;;;50.38;;
80732;SDS011;70130;44.534;18.678;2024-02-21T07:23:06;93.07;;;49.25;;
80732;SDS011;70130;44.534;18.678;2024-02-21T07:25:32;78.50;;;38.92;;
80732;SDS011;70130;44.534;18.678;2024-02-21T07:27:58;80.13;;;41.75;;
80732;SDS011;70130;44.534;18.678;2024-02-21T07:30:24;77.63;;;39.63;;
80732;SDS011;70130;44.534;18.678;2024-02-21T07:32:50;79.88;;;40.72;;
80732;SDS011;70130;44.534;18.678;2024-02-21T07:35:17;90.25;;;42.95;;
80732;SDS011;70130;44.534;18.678;2024-02-21T07:37:43;88.60;;;42.72;;
80732;SDS011;70130;44.534;18.678;2024-02-21T07:40:15;87.63;;;44.42;;
80732;SDS011;70130;44.534;18.678;2024-02-21T07:42:42;90.60;;;43.53;;
80732;SDS011;70130;44.534;18.678;2024-02-21T07:45:08;78.95;;;41.90;;
80732;SDS011;70130;44.534;18.678;2024-02-21T07:47:34;79.28;;;38.53;;
80732;SDS011;70130;44.534;18.678;2024-02-21T07:50:01;71.38;;;34.85;;
80732;SDS011;70130;44.534;18.678;2024-02-21T07:52:27;67.68;;;33.40;;
80732;SDS011;70130;44.534;18.678;2024-02-21T07:54:53;74.47;;;33.72;;
80732;SDS011;70130;44.534;18.678;2024-02-21T07:57:19;52.40;;;26.30;;
80732;SDS011;70130;44.534;18.678;2024-02-21T07:59:44;60.25;;;28.38;;
80732;SDS011;70130;44.534;18.678;2024-02-21T08:02:13;51.75;;;26.70;;
80732;SDS011;70130;44.534;18.678;2024-02-21T08:04:39;61.30;;;30.00;;
80732;SDS011;70130;44.534;18.678;2024-02-21T08:07:05;52.65;;;28.35;;
80732;SDS011;70130;44.534;18.678;2024-02-21T08:09:30;53.63;;;27.90;;
80732;SDS011;70130;44.534;18.678;2024-02-21T08:11:56;70.57;;;33.50;;
80732;SDS011;70130;44.534;18.678;2024-02-21T08:14:22;81.80;;;36.95;;
80732;SDS011;70130;44.534;18.678;2024-02-21T08:16:50;87.90;;;41.60;;
80732;SDS011;70130;44.534;18.678;2024-02-21T08:19:18;68.47;;;32.92;;
80732;SDS011;70130;44.534;18.678;2024-02-21T08:21:44;45.72;;;23.13;;
80732;SDS011;70130;44.534;18.678;2024-02-21T08:24:13;48.72;;;22.42;;
80732;SDS011;70130;44.534;18.678;2024-02-21T08:26:42;55.63;;;24.58;;
80732;SDS011;70130;44.534;18.678;2024-02-21T08:29:09;57.30;;;26.08;;
80732;SDS011;70130;44.534;18.678;2024-02-21T08:31:35;64.68;;;26.42;;
80732;SDS011;70130;44.534;18.678;2024-02-21T08:34:01;42.40;;;19.38;;
80732;SDS011;70130;44.534;18.678;2024-02-21T08:36:34;58.08;;;23.67;;
80732;SDS011;70130;44.534;18.678;2024-02-21T08:39:00;52.33;;;23.00;;
80732;SDS011;70130;44.534;18.678;2024-02-21T08:41:30;51.72;;;23.85;;
80732;SDS011;70130;44.534;18.678;2024-02-21T08:43:56;68.03;;;29.67;;
80732;SDS011;70130;44.534;18.678;2024-02-21T08:46:22;66.20;;;29.83;;
80732;SDS011;70130;44.534;18.678;2024-02-21T08:48:52;116.35;;;51.03;;
80732;SDS011;70130;44.534;18.678;2024-02-21T08:51:19;69.22;;;27.88;;
80732;SDS011;70130;44.534;18.678;2024-02-21T08:53:45;51.05;;;24.25;;
80732;SDS011;70130;44.534;18.678;2024-02-21T08:56:11;53.15;;;24.92;;
80732;SDS011;70130;44.534;18.678;2024-02-21T08:58:37;59.38;;;25.50;;
80732;SDS011;70130;44.534;18.678;2024-02-21T09:01:04;65.60;;;27.00;;
80732;SDS011;70130;44.534;18.678;2024-02-21T09:03:31;62.05;;;26.05;;
80732;SDS011;70130;44.534;18.678;2024-02-21T09:05:57;61.38;;;26.92;;
80732;SDS011;70130;44.534;18.678;2024-02-21T09:08:23;57.15;;;24.83;;
80732;SDS011;70130;44.534;18.678;2024-02-21T09:10:49;50.97;;;24.70;;
80732;SDS011;70130;44.534;18.678;2024-02-21T09:13:16;59.90;;;27.42;;
80732;SDS011;70130;44.534;18.678;2024-02-21T09:15:44;53.65;;;23.05;;
80732;SDS011;70130;44.534;18.678;2024-02-21T09:18:09;55.03;;;25.35;;
80732;SDS011;70130;44.534;18.678;2024-02-21T09:20:35;56.15;;;26.90;;
80732;SDS011;70130;44.534;18.678;2024-02-21T09:23:01;59.78;;;27.15;;
80732;SDS011;70130;44.534;18.678;2024-02-21T09:25:30;52.97;;;25.95;;
80732;SDS011;70130;44.534;18.678;2024-02-21T09:27:57;55.97;;;24.15;;
80732;SDS011;70130;44.534;18.678;2024-02-21T09:30:23;58.03;;;27.98;;
80732;SDS011;70130;44.534;18.678;2024-02-21T09:32:49;51.25;;;24.45;;
80732;SDS011;70130;44.534;18.678;2024-02-21T09:35:15;48.70;;;21.40;;
80732;SDS011;70130;44.534;18.678;2024-02-21T09:37:41;45.00;;;19.65;;
80732;SDS011;70130;44.534;18.678;2024-02-21T09:40:06;52.92;;;21.48;;
80732;SDS011;70130;44.534;18.678;2024-02-21T09:42:39;46.22;;;21.48;;
80732;SDS011;70130;44.534;18.678;2024-02-21T09:47:56;36.00;;;14.63;;
80732;SDS011;70130;44.534;18.678;2024-02-21T09:50:32;37.63;;;14.82;;
80732;SDS011;70130;44.534;18.678;2024-02-21T09:53:03;60.72;;;25.25;;
80732;SDS011;70130;44.534;18.678;2024-02-21T09:55:33;18.93;;;8.00;;
80732;SDS011;70130;44.534;18.678;2024-02-21T09:58:06;14.25;;;6.60;;
80732;SDS011;70130;44.534;18.678;2024-02-21T10:00:33;40.28;;;16.95;;
80732;SDS011;70130;44.534;18.678;2024-02-21T10:03:00;17.90;;;8.45;;
80732;SDS011;70130;44.534;18.678;2024-02-21T10:05:26;13.25;;;7.50;;
80732;SDS011;70130;44.534;18.678;2024-02-21T10:07:53;14.68;;;7.32;;
80732;SDS011;70130;44.534;18.678;2024-02-21T10:10:23;17.08;;;10.40;;
80732;SDS011;70130;44.534;18.678;2024-02-21T10:16:36;35.05;;;16.17;;
80732;SDS011;70130;44.534;18.678;2024-02-21T10:19:02;35.80;;;17.73;;
80732;SDS011;70130;44.534;18.678;2024-02-21T10:21:29;35.75;;;13.32;;
80732;SDS011;70130;44.534;18.678;2024-02-21T10:23:57;20.08;;;8.57;;
80732;SDS011;70130;44.534;18.678;2024-02-21T10:26:22;27.70;;;11.82;;
80732;SDS011;70130;44.534;18.678;2024-02-21T10:28:48;29.77;;;14.13;;
80732;SDS011;70130;44.534;18.678;2024-02-21T10:31:26;33.90;;;13.18;;
80732;SDS011;70130;44.534;18.678;2024-02-21T10:33:56;34.55;;;13.50;;
80732;SDS011;70130;44.534;18.678;2024-02-21T10:40:28;35.80;;;13.10;;
80732;SDS011;70130;44.534;18.678;2024-02-21T10:42:58;38.60;;;15.02;;
80732;SDS011;70130;44.534;18.678;2024-02-21T10:45:28;50.17;;;18.88;;
80732;SDS011;70130;44.534;18.678;2024-02-21T10:48:01;45.97;;;18.98;;
80732;SDS011;70130;44.534;18.678;2024-02-21T10:50:31;40.65;;;18.63;;
80732;SDS011;70130;44.534;18.678;2024-02-21T10:53:06;37.03;;;16.85;;
80732;SDS011;70130;44.534;18.678;2024-02-21T10:55:44;39.75;;;15.93;;
80732;SDS011;70130;44.534;18.678;2024-02-21T10:58:20;40.97;;;18.02;;
80732;SDS011;70130;44.534;18.678;2024-02-21T11:00:46;33.05;;;14.93;;
80732;SDS011;70130;44.534;18.678;2024-02-21T11:03:12;28.75;;;16.02;;
80732;SDS011;70130;44.534;18.678;2024-02-21T11:09:29;36.22;;;15.57;;
80732;SDS011;70130;44.534;18.678;2024-02-21T11:11:58;32.03;;;15.85;;
80732;SDS011;70130;44.534;18.678;2024-02-21T11:14:28;31.52;;;14.30;;
80732;SDS011;70130;44.534;18.678;2024-02-21T11:16:57;27.45;;;14.27;;
80732;SDS011;70130;44.534;18.678;2024-02-21T11:19:26;30.52;;;14.85;;
80732;SDS011;70130;44.534;18.678;2024-02-21T11:21:53;24.20;;;13.25;;
80732;SDS011;70130;44.534;18.678;2024-02-21T11:24:29;25.13;;;12.13;;
80732;SDS011;70130;44.534;18.678;2024-02-21T11:27:14;20.17;;;10.65;;
80732;SDS011;70130;44.534;18.678;2024-02-21T11:29:44;23.40;;;12.15;;
80732;SDS011;70130;44.534;18.678;2024-02-21T11:32:11;22.47;;;13.20;;
80732;SDS011;70130;44.534;18.678;2024-02-21T11:34:40;26.95;;;12.75;;
80732;SDS011;70130;44.534;18.678;2024-02-21T11:37:12;23.70;;;12.65;;
80732;SDS011;70130;44.534;18.678;2024-02-21T11:39:41;19.55;;;11.02;;
80732;SDS011;70130;44.534;18.678;2024-02-21T11:42:07;24.70;;;11.43;;
80732;SDS011;70130;44.534;18.678;2024-02-21T11:44:37;22.42;;;11.55;;
80732;SDS011;70130;44.534;18.678;2024-02-21T11:47:03;18.13;;;9.00;;
80732;SDS011;70130;44.534;18.678;2024-02-21T11:49:29;16.02;;;9.20;;
80732;SDS011;70130;44.534;18.678;2024-02-21T11:51:59;14.98;;;7.68;;
80732;SDS011;70130;44.534;18.678;2024-02-21T11:54:26;15.40;;;7.75;;
80732;SDS011;70130;44.534;18.678;2024-02-21T11:56:52;11.52;;;6.85;;
80732;SDS011;70130;44.534;18.678;2024-02-21T11:59:18;13.93;;;6.80;;
80732;SDS011;70130;44.534;18.678;2024-02-21T12:01:43;18.83;;;8.32;;
80732;SDS011;70130;44.534;18.678;2024-02-21T12:04:10;14.52;;;7.03;;
80732;SDS011;70130;44.534;18.678;2024-02-21T12:06:36;14.85;;;6.97;;
80732;SDS011;70130;44.534;18.678;2024-02-21T12:09:02;19.63;;;6.78;;
80732;SDS011;70130;44.534;18.678;2024-02-21T12:11:28;13.68;;;5.50;;
80732;SDS011;70130;44.534;18.678;2024-02-21T12:14:00;13.43;;;4.70;;
80732;SDS011;70130;44.534;18.678;2024-02-21T12:16:30;10.90;;;5.70;;
80732;SDS011;70130;44.534;18.678;2024-02-21T12:18:57;20.63;;;6.65;;
80732;SDS011;70130;44.534;18.678;2024-02-21T12:21:23;11.55;;;5.47;;
80732;SDS011;70130;44.534;18.678;2024-02-21T12:23:54;9.98;;;4.78;;
80732;SDS011;70130;44.534;18.678;2024-02-21T12:26:20;12.85;;;5.43;;
80732;SDS011;70130;44.534;18.678;2024-02-21T12:28:46;14.13;;;7.25;;
80732;SDS011;70130;44.534;18.678;2024-02-21T12:31:12;18.00;;;9.13;;
80732;SDS011;70130;44.534;18.678;2024-02-21T12:33:38;21.38;;;8.70;;
80732;SDS011;70130;44.534;18.678;2024-02-21T12:36:03;18.73;;;8.10;;
80732;SDS011;70130;44.534;18.678;2024-02-21T12:38:29;13.52;;;7.93;;
80732;SDS011;70130;44.534;18.678;2024-02-21T12:40:55;17.50;;;8.68;;
80732;SDS011;70130;44.534;18.678;2024-02-21T12:43:26;21.33;;;9.60;;
80732;SDS011;70130;44.534;18.678;2024-02-21T12:45:51;14.57;;;7.18;;
80732;SDS011;70130;44.534;18.678;2024-02-21T12:48:18;18.23;;;7.28;;
80732;SDS011;70130;44.534;18.678;2024-02-21T12:50:49;15.93;;;6.57;;
80732;SDS011;70130;44.534;18.678;2024-02-21T12:53:19;15.00;;;6.78;;
80732;SDS011;70130;44.534;18.678;2024-02-21T12:55:50;17.63;;;7.90;;
80732;SDS011;70130;44.534;18.678;2024-02-21T12:58:15;14.65;;;6.85;;
80732;SDS011;70130;44.534;18.678;2024-02-21T13:00:42;11.43;;;6.40;;
80732;SDS011;70130;44.534;18.678;2024-02-21T13:03:10;16.15;;;8.18;;
80732;SDS011;70130;44.534;18.678;2024-02-21T13:05:36;14.35;;;7.13;;
80732;SDS011;70130;44.534;18.678;2024-02-21T13:08:02;16.83;;;8.63;;
80732;SDS011;70130;44.534;18.678;2024-02-21T13:10:27;18.92;;;8.63;;
80732;SDS011;70130;44.534;18.678;2024-02-21T13:12:53;17.45;;;8.45;;
80732;SDS011;70130;44.534;18.678;2024-02-21T13:15:19;15.68;;;8.07;;
80732;SDS011;70130;44.534;18.678;2024-02-21T13:17:45;13.38;;;7.78;;
80732;SDS011;70130;44.534;18.678;2024-02-21T13:20:10;17.48;;;10.20;;
80732;SDS011;70130;44.534;18.678;2024-02-21T13:22:37;14.40;;;7.47;;
80732;SDS011;70130;44.534;18.678;2024-02-21T13:25:03;16.00;;;7.72;;
80732;SDS011;70130;44.534;18.678;2024-02-21T13:27:29;17.33;;;8.48;;
80732;SDS011;70130;44.534;18.678;2024-02-21T13:29:55;16.02;;;7.68;;
80732;SDS011;70130;44.534;18.678;2024-02-21T13:32:21;18.13;;;9.05;;
80732;SDS011;70130;44.534;18.678;2024-02-21T13:34:47;23.98;;;10.82;;
80732;SDS011;70130;44.534;18.678;2024-02-21T13:37:13;14.20;;;7.40;;
80732;SDS011;70130;44.534;18.678;2024-02-21T13:39:40;20.60;;;9.43;;
80732;SDS011;70130;44.534;18.678;2024-02-21T13:42:05;14.38;;;6.57;;
80732;SDS011;70130;44.534;18.678;2024-02-21T13:44:34;13.48;;;5.78;;
80732;SDS011;70130;44.534;18.678;2024-02-21T13:47:01;10.32;;;5.75;;
80732;SDS011;70130;44.534;18.678;2024-02-21T13:49:27;10.13;;;5.72;;
80732;SDS011;70130;44.534;18.678;2024-02-21T13:51:53;8.68;;;4.57;;
80732;SDS011;70130;44.534;18.678;2024-02-21T13:54:19;10.50;;;5.32;;
80732;SDS011;70130;44.534;18.678;2024-02-21T13:56:46;18.05;;;6.55;;
80732;SDS011;70130;44.534;18.678;2024-02-21T13:59:12;17.88;;;7.63;;
80732;SDS011;70130;44.534;18.678;2024-02-21T14:01:40;11.65;;;5.38;;
80732;SDS011;70130;44.534;18.678;2024-02-21T14:04:06;21.80;;;8.95;;
80732;SDS011;70130;44.534;18.678;2024-02-21T14:06:32;18.70;;;8.70;;
80732;SDS011;70130;44.534;18.678;2024-02-21T14:08:58;14.70;;;6.45;;
80732;SDS011;70130;44.534;18.678;2024-02-21T14:11:24;13.35;;;6.07;;
80732;SDS011;70130;44.534;18.678;2024-02-21T14:13:52;12.55;;;5.70;;
80732;SDS011;70130;44.534;18.678;2024-02-21T14:16:18;11.82;;;5.85;;
80732;SDS011;70130;44.534;18.678;2024-02-21T14:18:43;15.40;;;5.85;;